Condiciones actuales en los principales Aeropuertos de España-Datos Metar

 

LEAL - Alicante
Actualización: 25/09/2018 19:00
Partly Cloudy
Partly Cloudy
 Viento del E
Viento: E 20 km/h
Temperatura: 24°C
Rocío: 22°C
Humedad: 89%
Barómetro: 1022 hPa
Nubosidad: Partly Cloudy
Visibilidad: 10 km
Cloud details: Few Clouds 244 m
Partly Cloudy 762 m
2018/09/25 17:00 LEAL 251700Z 08011KT 9999 FEW008 SCT025 24/22 Q1022 NOSIG
LEAB - Albacete
Actualización: 25/09/2018 19:00
Few Clouds
Few Clouds
 Viento del ESE
Viento: ESE 24 km/h
Temperatura: 24°C
Rocío: 17°C
Humedad: 65%
Barómetro: 1023 hPa
Nubosidad: Few Clouds
Visibilidad: 10 km
Cloud details: Few Clouds 1341 m
2018/09/25 17:00 LEAB 251700Z 12013KT 100V160 9999 FEW044 24/17 Q1023 NOSIG
LEAM - Almería
Actualización: 25/09/2018 19:00
Few Clouds
Few Clouds
 Viento del E
Viento: E 31 km/h
Temperatura: 29°C
Heat Index: 30°C
Rocío: 19°C
Humedad: 55%
Barómetro: 1019 hPa
Nubosidad: Few Clouds
Visibilidad: 10 km
Cloud details: Few Clouds 305 m
2018/09/25 17:00 LEAM 251700Z 08017KT 9999 FEW010 29/19 Q1019
 
LEAS - Asturias/Aviles
Actualización: 25/09/2018 19:00
Few Clouds
Few Clouds
 Viento del E
Viento: E 22 km/h
Temperatura: 17°C
Rocío: 11°C
Humedad: 68%
Barómetro: 1026 hPa
Nubosidad: Few Clouds
Visibilidad: 10 km
Cloud details: Few Clouds 853 m
2018/09/25 17:00 LEAS 251700Z 09012KT 050V120 9999 FEW028 17/11 Q1026 NOSIG
LEBZ - Badajoz/Talavera la Real
Actualización: 25/09/2018 19:00
Despejado
Despejado
 Viento del NO
Viento: NO 7 km/h
Temperatura: 36°C
Rocío: 10°C
Humedad: 20%
Barómetro: 1017 hPa
Resumen: Despejado
Visibilidad: greater than 10 km
2018/09/25 17:00 LEBZ 251700Z 31004KT 250V360 CAVOK 36/10 Q1017
LEBL - Barcelona
Actualización: 25/09/2018 19:00
Despejado
Despejado
 Viento del ENE
Viento: ENE 31 km/h
Temperatura: 23°C
Rocío: 16°C
Humedad: 65%
Barómetro: 1025 hPa
Resumen: Despejado
Visibilidad: greater than 10 km
2018/09/25 17:00 LEBL 251700Z 07017KT 040V100 CAVOK 23/16 Q1025 NOSIG
 
LEBB - Bilbao
Actualización: 25/09/2018 19:00
Despejado
Despejado
 Viento del NO
Viento: NO 7 km/h
Temperatura: 18°C
Rocío: 11°C
Humedad: 64%
Barómetro: 1027 hPa
Resumen: Despejado
Visibilidad: greater than 10 km
2018/09/25 17:00 LEBB 251700Z 31004KT 270V360 CAVOK 18/11 Q1027 NOSIG
LEBG - Burgos/Villafría
Actualización: 25/09/2018 19:00
Despejado
Despejado
 Viento del NE
Viento: NE 26 km/h
Temperatura: 18°C
Rocío: 5°C
Humedad: 43%
Barómetro: 1025 hPa
Resumen: Despejado
Visibilidad: greater than 10 km
2018/09/25 17:00 LEBG 251700Z 05014KT CAVOK 18/05 Q1025
LEBA - Córdoba
Actualización: 25/09/2018 19:00
Despejado
Despejado
 Viento del S
Viento: S 13 km/h
Temperatura: 35°C
Rocío: 11°C
Humedad: 23%
Barómetro: 1017 hPa
Resumen: Despejado
Visibilidad: greater than 10 km
2018/09/25 17:00 LEBA 251700Z 19007KT 170V230 CAVOK 35/11 Q1017
 
LEGE - Gerona
Actualización: 25/09/2018 19:00
Few Clouds
Few Clouds
 Viento del NE
Viento: NE 15 km/h
Temperatura: 21°C
Rocío: 14°C
Humedad: 64%
Barómetro: 1027 hPa
Nubosidad: Few Clouds
Visibilidad: 10 km
Cloud details: Few Clouds 1067 m
2018/09/25 17:00 LEGE 251700Z 04008KT 010V070 9999 FEW035 21/14 Q1027
LEGR - Granada
Actualización: 25/09/2018 19:00
Partly Cloudy
Partly Cloudy
 Viento del S
Viento: S 20 km/h
Temperatura: 30°C
Heat Index: 29°C
Rocío: 15°C
Humedad: 40%
Barómetro: 1021 hPa
Nubosidad: Partly Cloudy
Visibilidad: 10 km
Cloud details: Partly Cloudy 1829 m
2018/09/25 17:00 LEGR 251700Z 17011KT 140V200 9999 SCT060 30/15 Q1021
GCHI - Hierro
Actualización: 25/09/2018 19:00
Despejado
Despejado
 Viento del NNE
Viento: NNE 7 km/h
Temperatura: 25°C
Rocío: 21°C
Humedad: 79%
Barómetro: 1017 hPa
Resumen: Despejado
Visibilidad: greater than 10 km
2018/09/25 17:00 GCHI 251700Z 03004KT 010V080 CAVOK 25/21 Q1017
 
LEIB - Ibiza
Actualización: 25/09/2018 19:00
Few Clouds
Few Clouds
 Viento del NE
Viento: NE 17 km/h
Temperatura: 24°C
Rocío: 17°C
Humedad: 65%
Barómetro: 1023 hPa
Nubosidad: Few Clouds
Visibilidad: 10 km
Cloud details: Few Clouds 823 m
2018/09/25 17:00 LEIB 251700Z 04009KT 9999 FEW027 24/17 Q1023 NOSIG
LEJR - Jerez de la Frontera
Actualización: 25/09/2018 19:30
Despejado
Despejado
 Viento del SSE
Viento: SSE 17 km/h
Temperatura: 31°C
Rocío: 15°C
Humedad: 38%
Barómetro: 1017 hPa
Resumen: Despejado
Visibilidad: greater than 10 km
2018/09/25 17:30 LEJR 251730Z 15009KT 110V190 CAVOK 31/15 Q1017
LECO - A Coruña
Actualización: 25/09/2018 19:00
Despejado
Despejado
 Viento del E
Viento: E 19 km/h
Temperatura: 22°C
Rocío: 10°C
Humedad: 47%
Barómetro: 1021 hPa
Resumen: Despejado
Visibilidad: greater than 10 km
2018/09/25 17:00 LECO 251700Z 08010KT CAVOK 22/10 Q1021 NOSIG
 
GCLA - La Palma
Actualización: 25/09/2018 19:00
Few Clouds
Few Clouds
 Viento del NNE
Viento: NNE 11 km/h
Temperatura: 25°C
Rocío: 20°C
Humedad: 74%
Barómetro: 1017 hPa
Nubosidad: Few Clouds
Visibilidad: 10 km
Cloud details: Few Clouds 1524 m
2018/09/25 17:00 GCLA 251700Z 03006KT 350V070 9999 FEW050 25/20 Q1017
GCRR - Lanzarote
Actualización: 25/09/2018 19:00
Despejado
Despejado
 Viento del E
Viento: E 20 km/h
Temperatura: 24°C
Rocío: 22°C
Humedad: 89%
Barómetro: 1016 hPa
Resumen: Despejado
Visibilidad: greater than 10 km
2018/09/25 17:00 GCRR 251700Z 08011KT CAVOK 24/22 Q1016
GCLP - Las Palmas
Actualización: 25/09/2018 19:00
Few Clouds
Few Clouds
 Viento del NNE
Viento: NNE 22 km/h
Temperatura: 26°C
Rocío: 21°C
Humedad: 74%
Barómetro: 1016 hPa
Nubosidad: Few Clouds
Visibilidad: 10 km
Cloud details: Few Clouds 1829 m
2018/09/25 17:00 GCLP 251700Z 03012KT 9999 FEW060 26/21 Q1016 NOSIG
 
LELN - León
Actualización: 25/09/2018 19:00
Despejado
Despejado
 Viento del SE
Viento: SE 7 km/h
Temperatura: 22°C
Rocío: -6°C
Humedad: 15%
Barómetro: 1024 hPa
Resumen: Despejado
Visibilidad: greater than 10 km
2018/09/25 17:00 LELN 251700Z 14004KT 080V170 CAVOK 22/M06 Q1024
LELO - Logroño
Actualización: 25/09/2018 19:00
Despejado
Despejado
 Viento del E
Viento: E 11 km/h
Temperatura: 23°C
Rocío: 6°C
Humedad: 33%
Barómetro: 1024 hPa
Resumen: Despejado
Visibilidad: greater than 10 km
2018/09/25 17:00 LELO 251700Z 09006KT 070V130 CAVOK 23/06 Q1024
LECV - Madrid/Colmenar
Actualización: 25/09/2018 19:00
Partly Cloudy
Partly Cloudy
 Viento del varies
Viento: varies 2 km/h
Temperatura: 28°C
Rocío: 9°C
Humedad: 30%
Barómetro: 1023 hPa
Nubosidad: Partly Cloudy
Visibilidad: 10 km
Cloud details: Partly Cloudy 1524 m
2018/09/25 17:00 LECV 251700Z VRB01KT 9999 SCT050 28/09 Q1023
 
LEMD - Madrid/Barajas
Actualización: 25/09/2018 19:00
Few Clouds
Few Clouds
 Viento del OSO
Viento: OSO 4 km/h
Temperatura: 32°C
Rocío: 10°C
Humedad: 26%
Barómetro: 1020 hPa
Nubosidad: Few Clouds
Visibilidad: 10 km
Cloud details: Few Clouds 2286 m
2018/09/25 17:00 LEMD 251700Z 24002KT 9999 FEW075 32/10 Q1020 NOSIG
LEVS - Madrid/Cuatro Vientos
Actualización: 25/09/2018 19:00
Few Clouds
Few Clouds
 Viento del O
Viento: O 6 km/h
Temperatura: 31°C
Rocío: 10°C
Humedad: 27%
Barómetro: 1021 hPa
Nubosidad: Few Clouds
Visibilidad: 10 km
Cloud details: Few Clouds 1676 m
2018/09/25 17:00 LEVS 251700Z 27003KT 220V330 9999 FEW055 31/10 Q1021
LEGT - Madrid/Getafe
Actualización: 25/09/2018 19:00
Few Clouds
Few Clouds
 Viento del calm
Viento: Calma
Temperatura: 31°C
Rocío: 11°C
Humedad: 29%
Barómetro: 1021 hPa
Nubosidad: Few Clouds
Visibilidad: 10 km
Cloud details: Few Clouds 1676 m
2018/09/25 17:00 LEGT 251700Z 00000KT 9999 FEW055TCU 31/11 Q1021
 
LETO - Madrid/Torrejón
Actualización: 25/09/2018 19:00
Few Clouds
Few Clouds
 Viento del OSO
Viento: OSO 6 km/h
Temperatura: 31°C
Rocío: 11°C
Humedad: 29%
Barómetro: 1021 hPa
Nubosidad: Few Clouds
Visibilidad: 10 km
Cloud details: Few Clouds 1524 m
2018/09/25 17:00 LETO 251700Z 25003KT 210V340 9999 FEW050 31/11 Q1021 NOSIG
LEMG - Málaga
Actualización: 25/09/2018 19:00
Few Clouds
Few Clouds
 Viento del SE
Viento: SE 9 km/h
Temperatura: 26°C
Rocío: 21°C
Humedad: 74%
Barómetro: 1021 hPa
Nubosidad: Few Clouds
Visibilidad: 10 km
Cloud details: Few Clouds 610 m
2018/09/25 17:00 LEMG 251700Z 14005KT 110V200 9999 FEW020 26/21 Q1021 NOSIG
GEML - Melilla
Actualización: 25/09/2018 19:00
Partly Cloudy
Partly Cloudy
 Viento del ENE
Viento: ENE 17 km/h
Temperatura: 26°C
Rocío: 22°C
Humedad: 79%
Barómetro: 1020 hPa
Nubosidad: Partly Cloudy
Visibilidad: 10 km
Cloud details: Few Clouds 366 m
Partly Cloudy 671 m
2018/09/25 17:00 GEML 251700Z 07009KT 030V100 9999 FEW012 SCT022 26/22 Q1020
 
LEMH - Mahón
Actualización: 25/09/2018 19:00
Mostly Cloudy
Mostly Cloudy
 Viento del NE
Viento: NE 24 km/h
Temperatura: 23°C
Rocío: 18°C
Humedad: 74%
Barómetro: 1023 hPa
Nubosidad: Mostly Cloudy
Visibilidad: 10 km
Cloud details: Few Clouds 549 m
Mostly Cloudy 701 m
2018/09/25 17:00 LEMH 251700Z 05013KT 020V080 9999 FEW018 BKN023 23/18 Q1023
LEMO - Morón de La Frontera
Actualización: 25/09/2018 19:00
Despejado
Despejado
 Viento del SO
Viento: SO 15 km/h
Temperatura: 34°C
Rocío: 14°C
Humedad: 30%
Barómetro: 1017 hPa
Resumen: Despejado
Visibilidad: greater than 10 km
2018/09/25 17:00 LEMO 251700Z 23008KT 200V270 CAVOK 34/14 Q1017 NOSIG
LERI - Murcia/Alcantarilla
Actualización: 25/09/2018 19:00
Partly Cloudy
Partly Cloudy
 Viento del ENE
Viento: ENE 22 km/h
Temperatura: 28°C
Heat Index: 29°C
Rocío: 20°C
Humedad: 62%
Barómetro: 1021 hPa
Nubosidad: Partly Cloudy
Visibilidad: 10 km
Cloud details: Few Clouds 914 m
Partly Cloudy 1219 m
2018/09/25 17:00 LERI 251700Z 07012KT 030V110 9999 FEW030 SCT040 28/20 Q1021 NOSIG
 
LELC - Murcia/San Javier
Actualización: 25/09/2018 19:00
Partly Cloudy
Partly Cloudy
 Viento del E
Viento: E 17 km/h
Temperatura: 25°C
Rocío: 20°C
Humedad: 74%
Barómetro: 1022 hPa
Nubosidad: Partly Cloudy
Visibilidad: 10 km
Cloud details: Partly Cloudy 549 m
2018/09/25 17:00 LELC 251700Z 08009KT 030V110 9999 SCT018 25/20 Q1022 NOSIG
LEPA - Palma de Mallorca
Actualización: 25/09/2018 19:00
Few Clouds
Few Clouds
 Viento del ENE
Viento: ENE 20 km/h
Temperatura: 26°C
Rocío: 16°C
Humedad: 54%
Barómetro: 1022 hPa
Nubosidad: Few Clouds
Visibilidad: 10 km
Cloud details: Few Clouds 762 m
2018/09/25 17:00 LEPA 251700Z 06011KT 9999 FEW025 26/16 Q1022 NOSIG
LEPP - Pamplona
Actualización: 25/09/2018 19:00
Despejado
Despejado
 Viento del NO
Viento: NO 15 km/h
Temperatura: 20°C
Rocío: 10°C
Humedad: 53%
Barómetro: 1025 hPa
Resumen: Despejado
Visibilidad: greater than 10 km
2018/09/25 17:00 LEPP 251700Z 32008KT CAVOK 20/10 Q1025
 
LERS - Reus
Actualización: 25/09/2018 19:00
Partly Cloudy
Partly Cloudy
 Viento del E
Viento: E 9 km/h
Temperatura: 23°C
Rocío: 17°C
Humedad: 69%
Barómetro: 1025 hPa
Nubosidad: Partly Cloudy
Visibilidad: 10 km
Cloud details: Partly Cloudy 762 m
Partly Cloudy 1524 m
2018/09/25 17:00 LERS 251700Z 10005KT 050V150 9999 SCT025 SCT050 23/17 Q1025
LERT - Rota
Actualización: 25/09/2018 19:00
Despejado
Despejado
 Viento del SE
Viento: SE 26 km/h
Temperatura: 30°C
Heat Index: 31°C
Rocío: 18°C
Humedad: 49%
Barómetro: 1017 hPa
Resumen: Despejado
Visibilidad: greater than 10 km
2018/09/25 17:00 LERT 251700Z 13014KT CAVOK 30/18 Q1017 NOSIG
LELL - Sabadell
Actualización: 25/09/2018 19:00
Partly Cloudy
Partly Cloudy
 Viento del E
Viento: E 19 km/h
Temperatura: 23°C
Rocío: 14°C
Humedad: 57%
Barómetro: 1026 hPa
Nubosidad: Partly Cloudy
Visibilidad: 9 km
2018/09/25 17:00 LELL 251700Z 10010KT 070V140 9000 NSC 23/14 Q1026
 
LESA - Salamanca
Actualización: 25/09/2018 19:00
Despejado
Despejado
 Viento del ENE
Viento: ENE 7 km/h
Temperatura: 25°C
Rocío: 7°C
Humedad: 32%
Barómetro: 1023 hPa
Resumen: Despejado
Visibilidad: greater than 10 km
2018/09/25 17:00 LESA 251700Z 07004KT 050V110 CAVOK 25/07 Q1023
LESO - San Sebastián
Actualización: 25/09/2018 19:00
Despejado
Despejado
 Viento del N
Viento: N 6 km/h
Temperatura: 17°C
Rocío: 11°C
Humedad: 68%
Barómetro: 1027 hPa
Resumen: Despejado
Visibilidad: greater than 10 km
2018/09/25 17:00 LESO 251700Z 01003KT 300V050 CAVOK 17/11 Q1027
LEXJ - Santander
Actualización: 25/09/2018 19:00
Despejado
Despejado
 Viento del NE
Viento: NE 13 km/h
Temperatura: 17°C
Rocío: 12°C
Humedad: 73%
Barómetro: 1027 hPa
Resumen: Despejado
Visibilidad: greater than 10 km
2018/09/25 17:00 LEXJ 251700Z 05007KT 360V100 CAVOK 17/12 Q1027
 
LEPA - Palma de Mallorca
Actualización: 25/09/2018 19:00
Few Clouds
Few Clouds
 Viento del ENE
Viento: ENE 20 km/h
Temperatura: 26°C
Rocío: 16°C
Humedad: 54%
Barómetro: 1022 hPa
Nubosidad: Few Clouds
Visibilidad: 10 km
Cloud details: Few Clouds 762 m
2018/09/25 17:00 LEPA 251700Z 06011KT 9999 FEW025 26/16 Q1022 NOSIG
LEPP - Pamplona
Actualización: 25/09/2018 19:00
Despejado
Despejado
 Viento del NO
Viento: NO 15 km/h
Temperatura: 20°C
Rocío: 10°C
Humedad: 53%
Barómetro: 1025 hPa
Resumen: Despejado
Visibilidad: greater than 10 km
2018/09/25 17:00 LEPP 251700Z 32008KT CAVOK 20/10 Q1025
LEST - Santiago de Compostela
Actualización: 25/09/2018 19:00
Despejado
Despejado
 Viento del ENE
Viento: ENE 13 km/h
Temperatura: 23°C
Rocío: 13°C
Humedad: 53%
Barómetro: 1021 hPa
Resumen: Despejado
Visibilidad: greater than 10 km
2018/09/25 17:00 LEST 251700Z 06007KT 010V110 CAVOK 23/13 Q1021 NOSIG
 
LEZL - Sevilla
Actualización: 25/09/2018 19:00
Despejado
Despejado
 Viento del varies
Viento: varies 4 km/h
Temperatura: 36°C
Rocío: 9°C
Humedad: 19%
Barómetro: 1016 hPa
Resumen: Despejado
Visibilidad: greater than 10 km
2018/09/25 17:00 LEZL 251700Z VRB02KT CAVOK 36/09 Q1016 NOSIG
GCXO - Tenerife
Actualización: 25/09/2018 19:00
Despejado
Despejado
 Viento del varies
Viento: varies 4 km/h
Temperatura: 30°C
Rocío: 9°C
Humedad: 27%
Barómetro: 1020 hPa
Resumen: Despejado
Visibilidad: greater than 10 km
2018/09/25 17:00 GCXO 251700Z VRB02KT CAVOK 30/09 Q1020 NOSIG
GCTS - Tenerife-Sur
Actualización: 25/09/2018 19:00
Few Clouds
Few Clouds
 Viento del E
Viento: E 19 km/h
Temperatura: 27°C
Heat Index: 29°C
Rocío: 21°C
Humedad: 70%
Barómetro: 1016 hPa
Nubosidad: Few Clouds
Visibilidad: 10 km
Cloud details: Few Clouds 1219 m
2018/09/25 17:00 GCTS 251700Z 10010KT 9999 FEW040 27/21 Q1016 NOSIG
 
LEVC - Valencia
Actualización: 25/09/2018 19:00
Cubierto
Cubierto
 Viento del NE
Viento: NE 17 km/h
Temperatura: 22°C
Rocío: 16°C
Humedad: 69%
Barómetro: 1025 hPa
Nubosidad: Cubierto
Visibilidad: 10 km
Cloud details: Mostly Cloudy 853 m
Cubierto 1219 m
2018/09/25 17:00 LEVC 251700Z 05009KT 020V080 9999 BKN028 OVC040 22/16 Q1025 NOSIG
LEVD - Valladolid
Actualización: 25/09/2018 19:00
Despejado
Despejado
 Viento del ENE
Viento: ENE 17 km/h
Temperatura: 23°C
Rocío: 0°C
Humedad: 22%
Barómetro: 1024 hPa
Resumen: Despejado
Visibilidad: greater than 10 km
2018/09/25 17:00 LEVD 251700Z 07009KT 040V100 CAVOK 23/00 Q1024
LEVX - Vigo
Actualización: 25/09/2018 19:00
Despejado
Despejado
 Viento del varies
Viento: varies 2 km/h
Temperatura: 30°C
Rocío: 13°C
Humedad: 35%
Barómetro: 1019 hPa
Resumen: Despejado
Visibilidad: greater than 10 km
2018/09/25 17:00 LEVX 251700Z VRB01KT CAVOK 30/13 Q1019 NOSIG
 
LEVT - Vitoria
Actualización: 25/09/2018 19:00
Few Clouds
Few Clouds
 Viento del NE
Viento: NE 17 km/h
Temperatura: 17°C
Rocío: 9°C
Humedad: 59%
Barómetro: 1026 hPa
Nubosidad: Few Clouds
Visibilidad: 10 km
Cloud details: Few Clouds 914 m
2018/09/25 17:00 LEVT 251700Z 04009KT 9999 FEW030 17/09 Q1026
LEZG - Zaragoza
Actualización: 25/09/2018 19:00
Despejado
Despejado
 Viento del ESE
Viento: ESE 6 km/h
Temperatura: 23°C
Rocío: 5°C
Humedad: 31%
Barómetro: 1025 hPa
Resumen: Despejado
Visibilidad: greater than 10 km
2018/09/25 17:00 LEZG 251700Z 11003KT 080V170 CAVOK 23/05 Q1025

La estación de MeteoMurcia.com, publica sus datos en los siguientes proyectos:

Meteoclimatic www.awekas.at

W3Counter
Web Analytics